Lackawanna, New York
Current Conditions -  °F | °C
As of 2:54 PM on Sunday 21 Dec 2014 (Local Time) from KBUF Reporting Station
Overcast Overcast  
Wind Chill: 27°   Ceiling: 2800
Heat Index: 33°   Visibility: 10mi
Dew Point: 21°   Wind: 7mph
Humidity: 61%   Direction: 250°WSW
Pressure: 30.27"   Gusts: NA
Location:  42.83°N, 78.82°W
Report Text: KBUF 211954Z 25006KT 10SM OVC028 01/M06 A3027 RMK AO2 SLP262 T00061061
Loading
Personal Weather Stations






























Interactive Weather Map New forecast layout! Learn more

10-Day Weather Forecast

Advertisements
Track Severe Weather on mobile